sensor_id;sensor_type;location;lat;lon;timestamp;P1;durP1;ratioP1;P2;durP2;ratioP2
47531;SDS011;33273;52.254;7.988;2023-11-21T19:57:03;10.63;;;7.20;;
47531;SDS011;33273;52.254;7.988;2023-11-21T19:59:30;13.88;;;9.60;;
47531;SDS011;33273;52.254;7.988;2023-11-21T20:01:56;11.73;;;7.50;;
47531;SDS011;33273;52.254;7.988;2023-11-21T20:06:52;11.63;;;7.53;;
47531;SDS011;33273;52.254;7.988;2023-11-21T20:09:22;9.73;;;6.88;;
47531;SDS011;33273;52.254;7.988;2023-11-21T20:11:48;12.60;;;8.40;;
47531;SDS011;33273;52.254;7.988;2023-11-21T20:14:16;12.00;;;7.50;;
47531;SDS011;33273;52.254;7.988;2023-11-21T20:16:43;13.60;;;8.40;;
47531;SDS011;33273;52.254;7.988;2023-11-21T20:19:10;9.82;;;7.32;;
47531;SDS011;33273;52.254;7.988;2023-11-21T20:21:35;10.20;;;6.63;;
47531;SDS011;33273;52.254;7.988;2023-11-21T20:24:02;11.00;;;7.30;;
47531;SDS011;33273;52.254;7.988;2023-11-21T20:26:28;11.30;;;7.80;;
47531;SDS011;33273;52.254;7.988;2023-11-21T20:28:54;12.37;;;8.30;;
47531;SDS011;33273;52.254;7.988;2023-11-21T20:31:20;11.43;;;8.52;;
47531;SDS011;33273;52.254;7.988;2023-11-21T20:33:53;14.43;;;8.87;;
47531;SDS011;33273;52.254;7.988;2023-11-21T20:36:19;11.85;;;8.40;;
47531;SDS011;33273;52.254;7.988;2023-11-21T20:41:15;12.63;;;7.53;;
47531;SDS011;33273;52.254;7.988;2023-11-21T20:43:41;12.13;;;8.23;;
47531;SDS011;33273;52.254;7.988;2023-11-21T20:46:06;13.30;;;8.10;;
47531;SDS011;33273;52.254;7.988;2023-11-21T20:48:32;13.77;;;8.57;;
47531;SDS011;33273;52.254;7.988;2023-11-21T20:50:58;14.53;;;9.70;;
47531;SDS011;33273;52.254;7.988;2023-11-21T20:53:25;15.73;;;9.57;;
47531;SDS011;33273;52.254;7.988;2023-11-21T20:55:50;17.33;;;12.52;;
47531;SDS011;33273;52.254;7.988;2023-11-21T21:00:43;17.50;;;11.68;;
47531;SDS011;33273;52.254;7.988;2023-11-21T21:03:09;15.83;;;11.13;;
47531;SDS011;33273;52.254;7.988;2023-11-21T21:05:40;20.05;;;11.32;;
47531;SDS011;33273;52.254;7.988;2023-11-21T21:08:07;17.58;;;11.15;;
47531;SDS011;33273;52.254;7.988;2023-11-21T21:10:33;20.23;;;12.18;;
47531;SDS011;33273;52.254;7.988;2023-11-21T21:12:59;17.83;;;10.77;;
47531;SDS011;33273;52.254;7.988;2023-11-21T21:15:25;17.13;;;10.80;;
47531;SDS011;33273;52.254;7.988;2023-11-21T21:17:51;16.70;;;10.27;;
47531;SDS011;33273;52.254;7.988;2023-11-21T21:20:17;14.97;;;10.20;;
47531;SDS011;33273;52.254;7.988;2023-11-21T21:22:43;16.07;;;10.87;;
47531;SDS011;33273;52.254;7.988;2023-11-21T21:25:09;17.95;;;11.13;;
47531;SDS011;33273;52.254;7.988;2023-11-21T21:27:39;17.17;;;11.45;;
47531;SDS011;33273;52.254;7.988;2023-11-21T21:30:05;17.63;;;11.32;;
47531;SDS011;33273;52.254;7.988;2023-11-21T21:32:32;15.68;;;10.82;;
47531;SDS011;33273;52.254;7.988;2023-11-21T21:34:59;17.75;;;10.90;;
47531;SDS011;33273;52.254;7.988;2023-11-21T21:37:25;14.27;;;9.80;;
47531;SDS011;33273;52.254;7.988;2023-11-21T21:39:51;17.40;;;10.43;;
47531;SDS011;33273;52.254;7.988;2023-11-21T21:42:17;14.55;;;10.18;;
47531;SDS011;33273;52.254;7.988;2023-11-21T21:44:43;15.17;;;9.33;;
47531;SDS011;33273;52.254;7.988;2023-11-21T21:47:09;13.40;;;8.37;;
47531;SDS011;33273;52.254;7.988;2023-11-21T21:49:35;13.85;;;8.65;;
47531;SDS011;33273;52.254;7.988;2023-11-21T21:52:02;17.55;;;10.40;;
47531;SDS011;33273;52.254;7.988;2023-11-21T21:54:28;14.02;;;9.23;;
47531;SDS011;33273;52.254;7.988;2023-11-21T21:56:53;17.60;;;9.17;;
47531;SDS011;33273;52.254;7.988;2023-11-21T21:59:19;12.63;;;8.40;;
47531;SDS011;33273;52.254;7.988;2023-11-21T22:04:12;15.75;;;9.25;;
47531;SDS011;33273;52.254;7.988;2023-11-21T22:06:38;14.23;;;9.52;;
47531;SDS011;33273;52.254;7.988;2023-11-21T22:09:04;12.35;;;8.60;;
47531;SDS011;33273;52.254;7.988;2023-11-21T22:13:59;13.55;;;8.48;;
47531;SDS011;33273;52.254;7.988;2023-11-21T22:16:25;15.27;;;8.82;;
47531;SDS011;33273;52.254;7.988;2023-11-21T22:18:53;13.70;;;8.25;;
47531;SDS011;33273;52.254;7.988;2023-11-21T22:21:20;14.32;;;7.78;;
47531;SDS011;33273;52.254;7.988;2023-11-21T22:26:15;11.75;;;8.05;;
47531;SDS011;33273;52.254;7.988;2023-11-21T22:28:42;16.75;;;8.50;;
47531;SDS011;33273;52.254;7.988;2023-11-21T22:31:08;12.07;;;7.50;;
47531;SDS011;33273;52.254;7.988;2023-11-21T22:33:35;14.60;;;8.33;;
47531;SDS011;33273;52.254;7.988;2023-11-21T22:36:02;12.98;;;7.78;;
47531;SDS011;33273;52.254;7.988;2023-11-21T22:38:28;11.27;;;7.68;;
47531;SDS011;33273;52.254;7.988;2023-11-21T22:40:55;12.50;;;6.97;;
47531;SDS011;33273;52.254;7.988;2023-11-21T22:43:20;11.03;;;7.03;;
47531;SDS011;33273;52.254;7.988;2023-11-21T22:45:46;11.67;;;6.73;;
47531;SDS011;33273;52.254;7.988;2023-11-21T22:48:12;11.53;;;6.70;;
47531;SDS011;33273;52.254;7.988;2023-11-21T22:50:38;10.13;;;5.83;;
47531;SDS011;33273;52.254;7.988;2023-11-21T22:53:03;11.43;;;6.63;;
47531;SDS011;33273;52.254;7.988;2023-11-21T22:55:29;12.70;;;6.57;;
47531;SDS011;33273;52.254;7.988;2023-11-21T22:57:55;11.50;;;7.17;;
47531;SDS011;33273;52.254;7.988;2023-11-21T23:00:21;12.17;;;7.13;;
47531;SDS011;33273;52.254;7.988;2023-11-21T23:02:54;10.35;;;6.82;;
47531;SDS011;33273;52.254;7.988;2023-11-21T23:05:20;12.27;;;6.68;;
47531;SDS011;33273;52.254;7.988;2023-11-21T23:07:46;10.87;;;7.03;;
47531;SDS011;33273;52.254;7.988;2023-11-21T23:10:12;11.32;;;7.32;;
47531;SDS011;33273;52.254;7.988;2023-11-21T23:12:38;11.17;;;6.67;;
47531;SDS011;33273;52.254;7.988;2023-11-21T23:15:04;10.47;;;6.97;;
47531;SDS011;33273;52.254;7.988;2023-11-21T23:17:30;10.65;;;5.57;;
47531;SDS011;33273;52.254;7.988;2023-11-21T23:19:56;14.73;;;7.25;;
47531;SDS011;33273;52.254;7.988;2023-11-21T23:22:22;10.87;;;6.33;;
47531;SDS011;33273;52.254;7.988;2023-11-21T23:24:48;11.60;;;6.72;;
47531;SDS011;33273;52.254;7.988;2023-11-21T23:27:14;12.20;;;7.13;;
47531;SDS011;33273;52.254;7.988;2023-11-21T23:29:40;13.73;;;7.40;;
47531;SDS011;33273;52.254;7.988;2023-11-21T23:32:09;9.88;;;5.70;;
47531;SDS011;33273;52.254;7.988;2023-11-21T23:34:37;11.70;;;7.20;;
47531;SDS011;33273;52.254;7.988;2023-11-21T23:37:02;12.67;;;6.70;;
47531;SDS011;33273;52.254;7.988;2023-11-21T23:39:28;9.45;;;5.88;;
47531;SDS011;33273;52.254;7.988;2023-11-21T23:41:57;11.90;;;6.60;;
47531;SDS011;33273;52.254;7.988;2023-11-21T23:44:23;11.77;;;6.50;;
47531;SDS011;33273;52.254;7.988;2023-11-21T23:46:52;15.15;;;8.95;;
47531;SDS011;33273;52.254;7.988;2023-11-21T23:49:18;8.83;;;6.23;;
47531;SDS011;33273;52.254;7.988;2023-11-21T23:51:44;13.30;;;6.67;;
47531;SDS011;33273;52.254;7.988;2023-11-21T23:56:37;12.48;;;6.28;;
47531;SDS011;33273;52.254;7.988;2023-11-21T23:59:03;10.20;;;6.60;;
